Time;durP1;ratioP1;P1;durP2;ratioP2;P2;SDS_P1;SDS_P2;PMS_P1;PMS_P2;Temp;Humidity;BMP_temperature;BMP_pressure;BME280_temperature;BME280_humidity;BME280_pressure;Samples;Min_cycle;Max_cycle;Signal;HPM_P1;HPM_P2
2021/09/26 00:00:16;;;;;;;20.73;11.55;;;;;;;13.92;100.00;101317.56;5157753;28;20433;-72
2021/09/26 00:02:46;;;;;;;20.27;11.73;;;;;;;13.96;100.00;101325.13;5158734;28;20034;-72
2021/09/26 00:05:17;;;;;;;20.27;11.85;;;;;;;14.01;100.00;101319.22;5176759;28;20026;-71
2021/09/26 00:07:47;;;;;;;25.85;11.57;;;;;;;14.05;100.00;101319.66;5178084;28;20013;-71
2021/09/26 00:10:18;;;;;;;19.27;11.02;;;;;;;14.07;100.00;101323.06;5170350;28;20049;-71
2021/09/26 00:12:48;;;;;;;17.40;10.52;;;;;;;14.08;100.00;101322.88;5171163;28;20025;-71
2021/09/26 00:15:21;;;;;;;17.05;11.20;;;;;;;14.07;100.00;101323.88;5157909;28;20037;-71
2021/09/26 00:17:52;;;;;;;20.02;11.73;;;;;;;14.08;100.00;101325.56;5171640;28;20045;-71
2021/09/26 00:20:24;;;;;;;24.02;13.25;;;;;;;14.10;100.00;101320.81;5160381;28;20030;-71
2021/09/26 00:22:54;;;;;;;21.88;12.68;;;;;;;14.15;100.00;101321.13;5178641;28;20403;-71
2021/09/26 00:25:25;;;;;;;23.92;12.85;;;;;;;14.19;100.00;101322.44;5181429;28;20029;-71
2021/09/26 00:27:55;;;;;;;23.52;13.20;;;;;;;14.27;100.00;101326.13;5145621;28;20113;-71
2021/09/26 00:30:26;;;;;;;29.15;13.18;;;;;;;14.29;100.00;101324.91;5173508;28;20395;-71
2021/09/26 00:32:56;;;;;;;19.92;12.30;;;;;;;14.34;100.00;101325.22;5181126;28;20293;-72
2021/09/26 00:35:27;;;;;;;20.02;12.18;;;;;;;14.37;100.00;101315.94;5167262;28;20018;-72
2021/09/26 00:37:57;;;;;;;25.25;13.05;;;;;;;14.38;100.00;101315.75;5161111;28;20438;-72
2021/09/26 00:40:28;;;;;;;20.92;12.43;;;;;;;14.41;100.00;101314.56;5162207;28;20106;-71
2021/09/26 00:42:58;;;;;;;20.77;12.63;;;;;;;14.43;100.00;101310.66;5181066;28;20072;-72
2021/09/26 00:45:29;;;;;;;21.13;12.07;;;;;;;14.45;100.00;101319.41;5163636;28;20026;-72
2021/09/26 00:47:59;;;;;;;20.58;12.00;;;;;;;14.47;100.00;101313.84;5161079;28;20060;-71
2021/09/26 00:50:31;;;;;;;19.77;11.10;;;;;;;14.48;100.00;101316.38;5159049;28;20108;-72
2021/09/26 00:53:02;;;;;;;18.23;11.52;;;;;;;14.45;100.00;101314.00;5181050;28;20489;-72
2021/09/26 00:55:33;;;;;;;18.83;11.77;;;;;;;14.44;100.00;101315.03;5168071;28;20030;-72
2021/09/26 00:58:03;;;;;;;23.98;13.52;;;;;;;14.43;100.00;101312.50;5167336;28;20456;-72
2021/09/26 01:00:35;;;;;;;22.40;13.40;;;;;;;14.44;100.00;101309.63;5160874;28;20128;-72
2021/09/26 01:03:05;;;;;;;23.77;12.85;;;;;;;14.46;100.00;101310.31;5174331;28;20041;-72
2021/09/26 01:05:36;;;;;;;25.83;13.63;;;;;;;14.51;100.00;101309.81;5160914;28;20030;-72
2021/09/26 01:08:22;;;;;;;26.05;14.55;;;;;;;14.53;100.00;101307.75;5177338;28;20104;-72
2021/09/26 01:11:16;;;;;;;27.25;14.32;;;;;;;14.56;100.00;101293.03;5168926;28;20503;-73
2021/09/26 01:14:48;;;;;;;26.13;15.00;;;;;;;14.59;100.00;101300.78;5169694;28;20049;-72
2021/09/26 01:17:40;;;;;;;30.20;14.65;;;;;;;14.61;100.00;101291.50;5072354;28;20236;-73
2021/09/26 01:20:29;;;;;;;31.33;15.52;;;;;;;14.64;100.00;101291.09;5168457;28;20061;-72
2021/09/26 01:23:05;;;;;;;25.20;14.40;;;;;;;14.69;100.00;101302.19;5162670;28;20057;-73
2021/09/26 01:25:51;;;;;;;26.27;15.00;;;;;;;14.72;100.00;101295.63;5173013;28;20175;-73
2021/09/26 01:28:40;;;;;;;27.33;14.60;;;;;;;14.73;100.00;101300.81;5180865;28;20052;-72
2021/09/26 01:31:16;;;;;;;27.55;13.93;;;;;;;14.75;100.00;101296.06;5160588;28;20034;-72
2021/09/26 01:33:59;;;;;;;22.33;14.63;;;;;;;14.75;100.00;101295.22;5160820;28;20038;-72
2021/09/26 01:36:45;;;;;;;22.20;14.77;;;;;;;14.76;100.00;101292.38;5180612;28;20069;-72
2021/09/26 01:39:46;;;;;;;23.38;14.63;;;;;;;14.78;100.00;101297.56;5161516;28;20052;-72
2021/09/26 01:42:33;;;;;;;24.00;13.70;;;;;;;14.81;100.00;101296.34;5177776;28;20030;-72
2021/09/26 01:45:20;;;;;;;21.55;14.05;;;;;;;14.84;100.00;101296.00;5166525;28;20506;-72
2021/09/26 01:47:57;;;;;;;23.90;15.05;;;;;;;14.85;100.00;101292.28;5159936;28;20049;-73
2021/09/26 01:50:40;;;;;;;24.35;14.55;;;;;;;14.87;100.00;101287.53;5179045;28;20399;-72
2021/09/26 01:53:12;;;;;;;22.65;13.55;;;;;;;14.88;100.00;101298.16;5167020;28;20023;-72
2021/09/26 01:55:43;;;;;;;24.10;14.95;;;;;;;14.91;100.00;101294.22;5159629;28;20026;-72
2021/09/26 01:58:16;;;;;;;23.73;14.48;;;;;;;14.92;100.00;101296.78;5161502;28;20022;-72
2021/09/26 02:00:47;;;;;;;25.42;15.43;;;;;;;14.92;100.00;101299.47;5179676;28;20021;-73
2021/09/26 02:03:22;;;;;;;26.55;14.40;;;;;;;14.92;100.00;101293.22;5176200;28;20026;-72
2021/09/26 02:05:53;;;;;;;22.38;14.15;;;;;;;14.92;100.00;101288.66;5170574;28;20033;-72
2021/09/26 02:08:25;;;;;;;22.92;12.77;;;;;;;14.94;100.00;101299.28;5166590;28;20122;-73
2021/09/26 02:10:56;;;;;;;24.73;14.18;;;;;;;14.92;100.00;101296.78;5171509;28;20021;-73
2021/09/26 02:13:29;;;;;;;24.40;14.10;;;;;;;14.94;100.00;101296.56;5159528;28;20492;-73
2021/09/26 02:16:00;;;;;;;23.80;15.00;;;;;;;14.95;100.00;101295.53;5173694;28;20088;-73
2021/09/26 02:18:32;;;;;;;23.15;14.02;;;;;;;14.96;100.00;101297.22;5179732;28;20125;-73
2021/09/26 02:21:05;;;;;;;26.30;13.85;;;;;;;14.95;100.00;101295.53;5166171;28;20403;-73
2021/09/26 02:23:36;;;;;;;23.50;14.63;;;;;;;14.95;100.00;101300.94;5179817;28;20044;-74
2021/09/26 02:26:08;;;;;;;24.23;14.73;;;;;;;14.92;100.00;101290.53;5174871;28;20036;-73
2021/09/26 02:28:40;;;;;;;22.63;14.75;;;;;;;14.93;100.00;101297.59;5159526;28;20047;-72
2021/09/26 02:31:12;;;;;;;25.25;15.63;;;;;;;14.92;100.00;101304.88;5160697;28;20060;-72
2021/09/26 02:33:45;;;;;;;27.75;15.50;;;;;;;14.94;100.00;101301.97;5165905;28;20031;-72
2021/09/26 02:36:16;;;;;;;25.17;15.20;;;;;;;14.95;100.00;101300.94;5172173;28;20030;-72
2021/09/26 02:38:47;;;;;;;20.95;14.07;;;;;;;14.96;100.00;101302.63;5172364;28;20145;-72
2021/09/26 02:41:44;;;;;;;26.00;15.65;;;;;;;15.00;100.00;101301.25;5167031;28;20539;-73
2021/09/26 02:44:22;;;;;;;21.73;14.70;;;;;;;15.04;100.00;101307.97;5178855;28;20379;-73
2021/09/26 02:46:59;;;;;;;26.65;13.65;;;;;;;15.09;100.00;101312.81;5178899;28;20388;-73
2021/09/26 02:49:30;;;;;;;26.70;14.05;;;;;;;15.12;100.00;101307.06;5179402;28;20048;-73
2021/09/26 02:52:01;;;;;;;24.48;14.38;;;;;;;15.18;100.00;101307.13;5175282;28;20022;-73
2021/09/26 02:54:36;;;;;;;21.98;13.43;;;;;;;15.20;100.00;101299.66;5158787;28;20067;-72
2021/09/26 02:57:09;;;;;;;25.10;14.32;;;;;;;15.23;100.00;101307.41;5164137;28;20396;-73
2021/09/26 02:59:40;;;;;;;23.25;14.38;;;;;;;15.25;100.00;101301.81;5178792;28;20033;-73
2021/09/26 03:02:10;;;;;;;28.10;15.70;;;;;;;15.27;100.00;101303.31;5171730;28;20029;-73
2021/09/26 03:04:43;;;;;;;26.98;15.65;;;;;;;15.32;100.00;101312.75;5159086;28;20108;-74
2021/09/26 03:07:14;;;;;;;27.60;16.05;;;;;;;15.38;100.00;101312.00;5166519;28;20032;-74
2021/09/26 03:09:44;;;;;;;28.52;16.08;;;;;;;15.43;100.00;101307.72;5165477;28;20473;-75
2021/09/26 03:12:18;;;;;;;28.85;15.80;;;;;;;15.49;100.00;101309.66;5169144;28;20022;-75
2021/09/26 03:14:50;;;;;;;26.48;14.95;;;;;;;15.52;100.00;101308.47;5158642;28;20018;-76
2021/09/26 03:17:20;;;;;;;28.75;15.35;;;;;;;15.53;100.00;101302.84;5169884;28;20021;-76
2021/09/26 03:19:51;;;;;;;23.48;13.57;;;;;;;15.59;100.00;101303.13;5173188;28;20463;-74
2021/09/26 03:22:22;;;;;;;22.75;13.52;;;;;;;15.61;100.00;101304.59;5158771;28;20030;-74
2021/09/26 03:24:52;;;;;;;21.85;13.55;;;;;;;15.63;100.00;101305.31;5165643;28;20022;-74
2021/09/26 03:27:23;;;;;;;29.33;17.15;;;;;;;15.63;100.00;101293.63;5178265;28;20022;-75
2021/09/26 03:29:54;;;;;;;31.75;15.68;;;;;;;15.64;100.00;101308.84;5170639;28;20106;-75
2021/09/26 03:32:24;;;;;;;25.60;15.02;;;;;;;15.65;100.00;101307.81;5159986;28;20018;-75
2021/09/26 03:34:55;;;;;;;26.83;16.60;;;;;;;15.64;100.00;101298.03;5178852;28;20030;-75
2021/09/26 03:37:26;;;;;;;28.77;16.00;;;;;;;15.67;100.00;101287.69;5165319;28;20026;-75
2021/09/26 03:39:57;;;;;;;26.63;16.33;;;;;;;15.69;100.00;101290.19;5168376;28;20033;-74
2021/09/26 03:42:27;;;;;;;27.15;15.38;;;;;;;15.69;100.00;101288.31;5174230;28;20380;-75
2021/09/26 03:44:58;;;;;;;22.73;14.68;;;;;;;15.71;100.00;101280.88;5179002;28;20041;-75
2021/09/26 03:47:29;;;;;;;30.48;15.55;;;;;;;15.73;100.00;101284.22;5178210;28;20081;-73
2021/09/26 03:50:00;;;;;;;33.60;15.98;;;;;;;15.72;100.00;101287.94;5164441;28;20022;-73
2021/09/26 03:52:31;;;;;;;36.47;16.83;;;;;;;15.72;100.00;101284.41;5158731;28;20036;-73
2021/09/26 03:55:08;;;;;;;28.80;15.93;;;;;;;15.70;100.00;101284.56;5161672;28;20361;-73
2021/09/26 03:57:40;;;;;;;29.20;16.38;;;;;;;15.69;100.00;101280.19;5172153;28;20022;-73
2021/09/26 04:00:14;;;;;;;30.65;17.17;;;;;;;15.70;100.00;101279.16;5168878;28;20030;-74
2021/09/26 04:02:45;;;;;;;31.58;16.40;;;;;;;15.75;100.00;101278.59;5182031;28;20025;-74
2021/09/26 04:05:15;;;;;;;33.15;17.60;;;;;;;15.76;100.00;101275.72;5176170;28;20480;-73
2021/09/26 04:07:46;;;;;;;33.75;17.45;;;;;;;15.84;100.00;101279.34;5174685;28;20479;-74
2021/09/26 04:10:17;;;;;;;29.02;16.70;;;;;;;15.86;100.00;101271.84;5182447;28;20041;-74
2021/09/26 04:12:47;;;;;;;29.23;16.42;;;;;;;15.86;100.00;101277.25;5182008;28;20378;-74
2021/09/26 04:15:19;;;;;;;31.65;15.50;;;;;;;15.82;100.00;101276.84;5173701;28;20029;-74
2021/09/26 04:17:49;;;;;;;27.38;16.65;;;;;;;15.76;100.00;101286.53;5163441;28;20022;-74
2021/09/26 04:20:20;;;;;;;28.90;16.00;;;;;;;15.74;100.00;101287.75;5182003;28;20021;-74
2021/09/26 04:22:50;;;;;;;30.63;17.05;;;;;;;15.72;100.00;101287.94;5178155;28;20289;-74
2021/09/26 04:25:21;;;;;;;27.50;16.00;;;;;;;15.72;100.00;101284.41;5161791;28;20403;-73
2021/09/26 04:27:57;;;;;;;29.55;17.38;;;;;;;15.73;100.00;101281.50;5179226;28;20026;-73
2021/09/26 04:30:27;;;;;;;29.55;16.45;;;;;;;15.75;100.00;101287.56;5169014;28;20034;-73
2021/09/26 04:32:58;;;;;;;30.80;17.55;;;;;;;15.74;100.00;101287.75;5174820;28;20023;-74
2021/09/26 04:35:29;;;;;;;25.73;16.00;;;;;;;15.73;100.00;101286.06;5162036;28;20029;-74
2021/09/26 04:37:59;;;;;;;28.33;16.25;;;;;;;15.71;100.00;101286.28;5181532;28;20041;-74
2021/09/26 04:40:30;;;;;;;32.92;17.00;;;;;;;15.72;100.00;101292.53;5181250;28;20022;-73
2021/09/26 04:43:00;;;;;;;30.98;16.92;;;;;;;15.72;100.00;101287.09;5181198;28;20033;-73
2021/09/26 04:45:31;;;;;;;28.85;16.92;;;;;;;15.70;100.00;101286.44;5177510;28;20026;-73
2021/09/26 04:48:04;;;;;;;33.85;18.40;;;;;;;15.69;100.00;101287.47;5161796;28;20559;-73
2021/09/26 04:50:34;;;;;;;35.08;18.48;;;;;;;15.69;100.00;101282.06;5179501;28;20049;-74
2021/09/26 04:53:05;;;;;;;32.45;17.70;;;;;;;15.68;100.00;101291.22;5181274;28;20391;-74
2021/09/26 04:55:35;;;;;;;28.73;16.45;;;;;;;15.60;100.00;101286.69;5174386;28;20459;-73
2021/09/26 04:58:06;;;;;;;28.60;16.48;;;;;;;15.49;100.00;101279.91;5161421;28;20034;-74
2021/09/26 05:00:37;;;;;;;32.67;16.40;;;;;;;15.38;100.00;101274.16;5180956;28;20046;-73
2021/09/26 05:03:08;;;;;;;33.40;16.15;;;;;;;15.25;100.00;101281.03;5165793;28;20061;-72
2021/09/26 05:05:38;;;;;;;40.08;16.17;;;;;;;15.16;100.00;101287.59;5160370;28;20018;-71
2021/09/26 05:08:09;;;;;;;59.78;18.35;;;;;;;15.02;100.00;101283.00;5168758;28;20026;-71
2021/09/26 05:10:39;;;;;;;33.53;17.63;;;;;;;14.94;100.00;101283.06;5180612;28;20364;-71
2021/09/26 05:13:10;;;;;;;25.83;15.65;;;;;;;14.89;100.00;101282.78;5163498;28;20484;-71
2021/09/26 05:15:40;;;;;;;29.42;15.65;;;;;;;14.81;100.00;101282.84;5171680;28;20498;-72
2021/09/26 05:18:12;;;;;;;28.13;15.15;;;;;;;14.72;100.00;101290.22;5167653;28;20022;-71
2021/09/26 05:20:42;;;;;;;54.15;14.48;;;;;;;14.64;100.00;101293.81;5167804;28;20034;-72
2021/09/26 05:23:13;;;;;;;146.68;14.55;;;;;;;14.57;100.00;101292.88;5160676;28;20384;-71
2021/09/26 05:25:43;;;;;;;23.70;10.35;;;;;;;14.52;100.00;101289.88;5173996;28;20029;-71
2021/09/26 05:28:14;;;;;;;46.28;12.45;;;;;;;14.44;100.00;101293.44;5173464;28;20516;-71
2021/09/26 05:30:45;;;;;;;51.28;11.50;;;;;;;14.39;100.00;101303.09;5159837;28;20050;-71
2021/09/26 05:33:15;;;;;;;107.90;13.52;;;;;;;14.34;100.00;101300.09;5160179;28;20521;-71
2021/09/26 05:35:46;;;;;;;24.35;10.82;;;;;;;14.30;100.00;101306.88;5160452;28;20050;-71
2021/09/26 05:38:17;;;;;;;33.83;5.70;;;;;;;14.23;100.00;101307.59;5160926;28;20388;-71
2021/09/26 05:40:47;;;;;;;48.60;8.25;;;;;;;14.16;100.00;101306.63;5163610;28;20028;-71
2021/09/26 05:43:17;;;;;;;12.65;7.10;;;;;;;14.14;100.00;101308.66;5178996;28;20006;-71
2021/09/26 05:45:48;;;;;;;13.45;8.65;;;;;;;14.12;100.00;101312.56;5177559;28;20105;-71
2021/09/26 05:48:19;;;;;;;43.05;8.25;;;;;;;14.13;100.00;101315.06;5166089;28;20162;-71
2021/09/26 05:50:50;;;;;;;20.73;8.02;;;;;;;14.12;100.00;101329.59;5141550;28;20276;-72
2021/09/26 05:53:21;;;;;;;10.98;8.10;;;;;;;14.13;100.00;101322.34;5171764;28;20030;-71
2021/09/26 05:55:52;;;;;;;14.07;8.55;;;;;;;14.14;100.00;101322.16;5166746;28;20103;-71
2021/09/26 05:58:22;;;;;;;16.17;9.13;;;;;;;14.18;100.00;101319.94;5163202;28;20034;-71
2021/09/26 06:00:53;;;;;;;14.80;9.23;;;;;;;14.21;100.00;101317.72;5168756;28;20115;-72
2021/09/26 06:03:23;;;;;;;18.85;11.45;;;;;;;14.25;100.00;101312.81;5166396;28;20025;-71
2021/09/26 06:05:54;;;;;;;20.10;7.82;;;;;;;14.28;100.00;101319.72;5168274;28;20102;-71
2021/09/26 06:08:26;;;;;;;332.80;18.83;;;;;;;14.30;100.00;101325.75;5172670;28;20090;-71
2021/09/26 06:10:57;;;;;;;163.23;13.40;;;;;;;14.28;100.00;101325.09;5170479;28;20614;-71
2021/09/26 06:13:27;;;;;;;91.43;14.00;;;;;;;14.28;100.00;101328.66;5179386;28;20021;-71
2021/09/26 06:16:01;;;;;;;203.80;17.85;;;;;;;14.31;100.00;101341.78;5178938;28;20029;-71
2021/09/26 06:18:31;;;;;;;273.52;18.08;;;;;;;14.32;100.00;101340.78;5179750;28;20026;-71
2021/09/26 06:21:02;;;;;;;15.38;9.93;;;;;;;14.36;100.00;101339.41;5179113;28;20445;-71
2021/09/26 06:23:33;;;;;;;23.30;14.43;;;;;;;14.49;100.00;101342.34;5170005;28;20029;-71
2021/09/26 06:26:03;;;;;;;28.95;16.25;;;;;;;14.81;100.00;101337.75;5159286;28;20022;-71
2021/09/26 06:28:33;;;;;;;29.70;16.00;;;;;;;15.13;100.00;101336.59;5159967;28;20186;-71
2021/09/26 06:31:04;;;;;;;26.02;15.07;;;;;;;15.32;100.00;101337.91;5163802;28;20176;-72
2021/09/26 06:33:34;;;;;;;20.05;12.50;;;;;;;15.48;100.00;101332.31;5179146;28;20091;-72
2021/09/26 06:36:05;;;;;;;26.10;13.55;;;;;;;15.76;100.00;101343.34;5179416;28;20026;-71
2021/09/26 06:38:35;;;;;;;28.15;15.45;;;;;;;16.13;100.00;101343.38;5179465;28;20101;-71
2021/09/26 06:41:06;;;;;;;24.23;14.15;;;;;;;16.57;100.00;101345.94;5180239;28;20105;-71
2021/09/26 06:43:36;;;;;;;25.55;14.55;;;;;;;16.89;100.00;101347.28;5177557;28;20049;-72
2021/09/26 06:46:07;;;;;;;24.55;12.70;;;;;;;17.18;100.00;101367.97;5166970;28;20120;-71
2021/09/26 06:48:37;;;;;;;21.27;12.68;;;;;;;17.52;100.00;101374.44;5179452;28;20021;-72
2021/09/26 06:51:08;;;;;;;23.05;12.75;;;;;;;17.80;100.00;101369.84;5178815;28;20026;-72
2021/09/26 06:53:39;;;;;;;20.17;12.60;;;;;;;18.03;100.00;101383.09;5175661;28;20476;-72
2021/09/26 06:56:10;;;;;;;18.33;12.98;;;;;;;18.32;100.00;101384.69;5169716;28;20111;-72
2021/09/26 06:58:40;;;;;;;25.13;13.25;;;;;;;18.14;100.00;101383.56;5161102;28;20136;-72
2021/09/26 07:01:11;;;;;;;28.85;15.05;;;;;;;18.28;100.00;101391.56;5158590;28;20032;-72
2021/09/26 07:03:41;;;;;;;23.48;14.57;;;;;;;18.34;100.00;101409.75;5165835;28;20014;-72
2021/09/26 07:06:12;;;;;;;22.40;14.82;;;;;;;18.26;100.00;101400.94;5166085;28;20047;-72
2021/09/26 07:08:42;;;;;;;22.95;15.20;;;;;;;18.17;100.00;101405.69;5178872;28;20542;-72
2021/09/26 07:11:13;;;;;;;26.17;15.90;;;;;;;17.85;100.00;101399.91;5165668;28;20026;-71
2021/09/26 07:13:43;;;;;;;25.95;16.23;;;;;;;17.68;100.00;101401.25;5170568;28;20279;-71
2021/09/26 07:16:14;;;;;;;34.03;18.38;;;;;;;17.61;100.00;101409.34;5158671;28;20031;-71
2021/09/26 07:18:45;;;;;;;29.13;18.33;;;;;;;17.49;100.00;101400.09;5158813;28;20022;-71
2021/09/26 07:21:16;;;;;;;36.80;20.05;;;;;;;17.43;100.00;101406.31;5157855;28;20019;-71
2021/09/26 07:23:46;;;;;;;36.60;20.73;;;;;;;17.29;100.00;101407.25;5170191;28;20029;-72
2021/09/26 07:26:18;;;;;;;37.20;20.85;;;;;;;17.26;100.00;101424.72;5179184;28;20026;-72
2021/09/26 07:28:48;;;;;;;41.53;22.75;;;;;;;17.33;100.00;101409.38;5181692;28;20025;-72
2021/09/26 07:31:19;;;;;;;41.17;22.23;;;;;;;17.38;100.00;101407.94;5176294;28;20081;-72
2021/09/26 07:33:51;;;;;;;39.42;22.55;;;;;;;17.29;100.00;101405.38;5175652;28;20443;-72
2021/09/26 07:36:21;;;;;;;44.25;23.80;;;;;;;17.29;100.00;101409.97;5182943;28;20022;-72
2021/09/26 07:38:51;;;;;;;43.10;23.65;;;;;;;17.27;100.00;101403.88;5167644;28;20026;-70
2021/09/26 07:41:22;;;;;;;43.53;24.83;;;;;;;17.32;100.00;101398.72;5171263;28;20025;-70
2021/09/26 07:43:53;;;;;;;47.03;24.45;;;;;;;17.45;100.00;101401.53;5178696;28;20030;-70
2021/09/26 07:46:23;;;;;;;45.17;25.00;;;;;;;17.56;100.00;101411.81;5172947;28;20358;-72
2021/09/26 07:48:53;;;;;;;45.03;24.63;;;;;;;17.67;100.00;101412.28;5163993;28;20072;-71
2021/09/26 07:51:24;;;;;;;46.65;25.55;;;;;;;17.92;100.00;101418.09;5162247;28;20022;-71
2021/09/26 07:53:54;;;;;;;47.13;25.45;;;;;;;18.03;100.00;101412.97;5161837;28;20015;-71
2021/09/26 07:56:25;;;;;;;47.33;25.15;;;;;;;18.15;100.00;101421.38;5162254;28;20113;-71
2021/09/26 07:58:55;;;;;;;42.33;24.33;;;;;;;18.40;100.00;101418.13;5181660;28;20526;-71
2021/09/26 08:01:26;;;;;;;44.58;23.48;;;;;;;18.74;100.00;101426.19;5168684;28;20492;-71
2021/09/26 08:03:56;;;;;;;43.47;23.67;;;;;;;18.90;100.00;101419.53;5182323;28;20479;-71
2021/09/26 08:06:27;;;;;;;35.90;22.38;;;;;;;18.96;100.00;101417.84;5178938;28;20088;-71
2021/09/26 08:08:57;;;;;;;49.33;24.90;;;;;;;19.02;100.00;101417.84;5166033;28;20361;-71
2021/09/26 08:11:27;;;;;;;39.60;23.30;;;;;;;19.20;100.00;101427.28;5174486;28;20030;-71
2021/09/26 08:13:58;;;;;;;38.47;23.83;;;;;;;19.74;100.00;101420.78;5161930;28;20035;-71
2021/09/26 08:16:28;;;;;;;37.53;23.67;;;;;;;19.78;100.00;101420.16;5179743;28;20082;-71
2021/09/26 08:18:59;;;;;;;39.83;24.08;;;;;;;19.67;100.00;101421.59;5169049;28;20109;-71
2021/09/26 08:21:30;;;;;;;38.63;23.35;;;;;;;19.72;100.00;101434.59;5161374;28;20019;-71
2021/09/26 08:24:00;;;;;;;44.00;24.48;;;;;;;19.59;100.00;101424.56;5161197;28;20617;-71
2021/09/26 08:26:30;;;;;;;38.80;25.13;;;;;;;19.33;100.00;101433.56;5169408;28;20026;-70
2021/09/26 08:29:02;;;;;;;41.47;24.10;;;;;;;19.29;100.00;101445.06;5168324;28;20053;-71
2021/09/26 08:31:32;;;;;;;42.00;24.92;;;;;;;19.30;100.00;101444.03;5172606;28;20022;-71
2021/09/26 08:34:03;;;;;;;41.95;24.80;;;;;;;19.30;100.00;101450.28;5161243;28;20384;-71
2021/09/26 08:36:33;;;;;;;46.88;25.98;;;;;;;19.24;100.00;101445.69;5161095;28;20026;-71
2021/09/26 08:39:04;;;;;;;41.38;25.50;;;;;;;19.39;100.00;101454.50;5159917;28;20113;-71
2021/09/26 08:41:35;;;;;;;44.05;25.55;;;;;;;19.30;100.00;101458.47;5169956;28;20033;-71
2021/09/26 08:44:06;;;;;;;43.88;25.80;;;;;;;19.21;100.00;101459.72;5175893;28;20101;-71
2021/09/26 08:46:37;;;;;;;48.10;24.75;;;;;;;19.29;100.00;101450.53;5160941;28;20092;-71
2021/09/26 08:49:09;;;;;;;41.47;24.13;;;;;;;19.49;100.00;101454.06;5167602;28;20104;-71
2021/09/26 08:51:40;;;;;;;40.15;25.40;;;;;;;19.87;100.00;101448.78;5180988;28;20018;-73
2021/09/26 08:54:10;;;;;;;39.83;22.95;;;;;;;19.87;100.00;101446.06;5163464;28;20033;-72
2021/09/26 08:56:42;;;;;;;41.53;25.40;;;;;;;20.07;100.00;101448.75;5181128;28;20715;-72
2021/09/26 08:59:13;;;;;;;44.20;25.17;;;;;;;20.46;100.00;101455.09;5171173;28;20030;-72
2021/09/26 09:01:45;;;;;;;40.97;23.48;;;;;;;20.79;100.00;101452.22;5164719;28;20029;-72
2021/09/26 09:04:15;;;;;;;37.50;23.15;;;;;;;21.30;100.00;101451.25;5181071;28;20033;-72
2021/09/26 09:06:47;;;;;;;35.00;21.98;;;;;;;21.49;100.00;101452.16;5180635;28;20375;-72
2021/09/26 09:09:20;;;;;;;34.72;21.88;;;;;;;21.28;100.00;101458.78;5150967;28;20092;-72
2021/09/26 09:12:05;;;;;;;34.90;22.85;;;;;;;21.34;100.00;101455.22;5160195;28;20030;-72
2021/09/26 09:14:58;;;;;;;34.53;21.83;;;;;;;21.85;100.00;101461.47;5173484;28;20074;-72
2021/09/26 09:17:34;;;;;;;35.03;21.60;;;;;;;22.12;100.00;101465.59;5172798;28;20069;-72
2021/09/26 09:20:10;;;;;;;32.28;21.00;;;;;;;21.84;100.00;101474.28;5180577;28;20104;-72
2021/09/26 09:22:43;;;;;;;29.88;19.65;;;;;;;22.14;100.00;101479.03;5167423;28;20061;-72
2021/09/26 09:25:37;;;;;;;29.25;19.73;;;;;;;22.14;100.00;101477.16;5171656;28;20117;-72
2021/09/26 09:28:23;;;;;;;30.90;19.10;;;;;;;22.48;100.00;101481.13;5173140;28;20479;-72
2021/09/26 09:31:01;;;;;;;30.75;20.40;;;;;;;22.38;100.00;101480.00;5173299;28;20026;-72
2021/09/26 09:33:46;;;;;;;31.38;19.40;;;;;;;22.02;100.00;101483.56;5160028;28;20030;-72
2021/09/26 09:36:21;;;;;;;26.27;18.75;;;;;;;22.06;100.00;101490.25;5173428;28;20029;-72
2021/09/26 09:39:02;;;;;;;28.92;19.08;;;;;;;22.13;100.00;101489.13;5172956;28;20364;-72
2021/09/26 09:41:41;;;;;;;31.42;18.48;;;;;;;22.60;100.00;101496.78;5168958;28;20024;-72
2021/09/26 09:44:14;;;;;;;28.60;18.05;;;;;;;22.64;100.00;101497.97;5173473;28;20105;-72
2021/09/26 09:46:48;;;;;;;27.55;17.48;;;;;;;22.60;100.00;101492.16;5173165;28;20026;-72
2021/09/26 09:49:25;;;;;;;25.88;17.83;;;;;;;22.66;100.00;101484.91;5158940;28;20088;-71
2021/09/26 09:51:58;;;;;;;28.90;17.13;;;;;;;22.56;100.00;101479.16;5162802;28;20025;-72
2021/09/26 09:54:39;;;;;;;24.33;15.60;;;;;;;22.62;100.00;101473.59;5180234;28;20053;-72
2021/09/26 09:57:21;;;;;;;24.27;16.85;;;;;;;22.73;100.00;101489.22;5180313;28;20050;-72
2021/09/26 09:59:52;;;;;;;23.77;15.43;;;;;;;22.87;100.00;101502.72;5166371;28;20022;-72
2021/09/26 10:02:36;;;;;;;23.88;16.70;;;;;;;23.19;100.00;101495.09;5179986;28;20526;-72
2021/09/26 10:05:06;;;;;;;25.40;15.45;;;;;;;23.22;100.00;101490.00;5175124;28;20486;-72
2021/09/26 10:07:41;;;;;;;24.17;16.42;;;;;;;23.31;100.00;101485.03;5163385;28;20018;-72
2021/09/26 10:10:15;;;;;;;24.60;16.25;;;;;;;23.08;100.00;101487.72;5179123;28;20022;-72
2021/09/26 10:12:45;;;;;;;25.05;15.45;;;;;;;23.16;100.00;101490.13;5178574;28;20463;-72
2021/09/26 10:15:16;;;;;;;28.80;14.40;;;;;;;22.74;100.00;101485.44;5167577;28;20113;-72
2021/09/26 10:17:46;;;;;;;18.88;13.65;;;;;;;22.67;100.00;101484.69;5179520;28;20495;-72
2021/09/26 10:20:17;;;;;;;20.42;14.02;;;;;;;23.03;100.00;101484.84;5179025;28;20033;-72
2021/09/26 10:22:47;;;;;;;19.38;13.70;;;;;;;22.81;100.00;101488.06;5166057;28;20032;-73
2021/09/26 10:25:19;;;;;;;21.02;14.25;;;;;;;22.11;100.00;101483.06;5169053;28;20101;-73
2021/09/26 10:27:52;;;;;;;20.42;13.35;;;;;;;22.07;100.00;101481.81;5158862;28;20045;-72
2021/09/26 10:30:23;;;;;;;19.42;13.63;;;;;;;22.08;100.00;101478.00;5158855;28;20029;-72
2021/09/26 10:32:56;;;;;;;17.20;12.57;;;;;;;22.11;100.00;101477.59;5165119;28;20076;-72
2021/09/26 10:35:26;;;;;;;20.88;12.20;;;;;;;22.23;100.00;101477.66;5165872;28;20105;-72
2021/09/26 10:37:57;;;;;;;22.15;12.52;;;;;;;22.34;100.00;101482.38;5171524;28;20543;-73
2021/09/26 10:40:28;;;;;;;18.58;12.23;;;;;;;22.69;100.00;101476.22;5171749;28;20022;-72
2021/09/26 10:43:21;;;;;;;18.00;12.40;;;;;;;22.93;100.00;101475.28;5179630;28;20092;-72
2021/09/26 10:46:21;;;;;;;18.85;13.63;;;;;;;22.78;100.00;101480.31;5179801;28;20030;-72
2021/09/26 10:49:12;;;;;;;17.92;12.98;;;;;;;22.88;100.00;101477.03;5174595;28;20496;-72
2021/09/26 10:51:45;;;;;;;18.70;11.85;;;;;;;22.77;100.00;101483.28;5159314;28;20026;-72
2021/09/26 10:54:21;;;;;;;19.13;11.65;;;;;;;22.60;100.00;101480.38;5170275;28;20109;-72
2021/09/26 10:57:04;;;;;;;15.73;11.27;;;;;;;22.43;100.00;101485.63;5171944;28;20034;-72
2021/09/26 10:59:43;;;;;;;20.13;12.07;;;;;;;22.25;100.00;101480.19;5158497;28;20099;-72
2021/09/26 11:02:22;;;;;;;19.83;12.25;;;;;;;21.88;100.00;101477.38;5157951;28;20044;-72
2021/09/26 11:04:58;;;;;;;18.67;11.93;;;;;;;21.90;100.00;101483.47;5158665;28;20058;-72
2021/09/26 11:07:31;;;;;;;14.73;10.20;;;;;;;22.01;100.00;101471.78;5169910;28;20030;-72
2021/09/26 11:10:06;;;;;;;14.25;10.07;;;;;;;22.03;100.00;101466.09;5160353;28;20092;-72
2021/09/26 11:12:46;;;;;;;13.15;9.05;;;;;;;22.11;100.00;101474.84;5158577;28;20057;-72
2021/09/26 11:15:21;;;;;;;11.27;8.05;;;;;;;21.93;100.00;101480.28;5166310;28;20061;-72
2021/09/26 11:17:52;;;;;;;;;;;;;;;21.86;100.00;101474.06;5179437;28;20050;-72
2021/09/26 11:20:26;;;;;;;9.82;6.85;;;;;;;21.80;100.00;101469.50;5168215;28;19953;-72
2021/09/26 11:23:05;;;;;;;12.32;7.53;;;;;;;21.79;100.00;101465.06;5162948;28;20022;-72
2021/09/26 11:26:03;;;;;;;10.35;7.47;;;;;;;21.83;100.00;101467.13;5165674;28;20057;-72
2021/09/26 11:28:39;;;;;;;10.85;7.35;;;;;;;21.78;100.00;101471.59;5168901;28;20124;-72